Grazzanise Airport LIRM

Flugplatz Daten

Name: Grazzanise Airport

Ident: LIRM

Lat: 41,06079865

Long: 14,08189964

Platzhöhe: 29 ft

IataCode:

City: Caserta

Metar

2022/08/13 16:55
LIRM 131655Z 18008KT 9999 FEW030CB 28/18 Q1010 RMK FEW VIS MIN 9999 WIND THR06 22007KT BLU

Taf

2022/01/25 12:24
TAF TAF LIRM 251100Z 2512/2524 03008KT CAVOK
Gewünschte Webcam nicht vorhanden? Dann fügen Sie eine hinzu. Sie wird dann so schnell wie möglich freigeschaltet
Url: Title: